createdAt,value
2019-01-26T00:03:39.408Z,4.47
2019-01-26T00:08:25.207Z,4.63
2019-01-26T00:13:11.196Z,5.33
2019-01-26T00:17:57.137Z,4.57
2019-01-26T00:22:42.871Z,5.70
2019-01-26T00:27:28.849Z,5.70
2019-01-26T00:32:14.842Z,6.10
2019-01-26T00:37:00.717Z,4.23
2019-01-26T00:41:47.773Z,4.57
2019-01-26T00:46:33.582Z,4.20
2019-01-26T00:51:19.464Z,4.43
2019-01-26T00:56:05.461Z,3.47
2019-01-26T01:00:51.305Z,3.57
2019-01-26T01:05:37.180Z,3.13
2019-01-26T01:10:23.103Z,3.80
2019-01-26T01:15:10.205Z,4.13
2019-01-26T01:19:56.033Z,3.87
2019-01-26T01:24:41.786Z,3.00
2019-01-26T01:29:27.709Z,2.80
2019-01-26T01:34:13.485Z,3.47
2019-01-26T01:38:59.373Z,2.80
2019-01-26T01:43:45.272Z,3.20
2019-01-26T01:48:31.395Z,2.60
2019-01-26T01:53:17.288Z,4.10
2019-01-26T01:58:03.264Z,3.03
2019-01-26T02:02:49.163Z,3.80
2019-01-26T02:07:34.992Z,3.07
2019-01-26T02:12:20.798Z,3.23
2019-01-26T02:17:06.713Z,2.47
2019-01-26T02:21:52.551Z,2.73
2019-01-26T02:26:38.587Z,2.80
2019-01-26T02:31:24.498Z,2.30
2019-01-26T02:36:10.741Z,2.70
2019-01-26T02:40:56.457Z,2.47
2019-01-26T02:45:42.286Z,2.30
2019-01-26T02:50:28.012Z,2.37
2019-01-26T02:55:14.046Z,2.17
2019-01-26T02:59:59.851Z,2.60
2019-01-26T03:04:45.901Z,2.13
2019-01-26T03:09:31.663Z,2.30
2019-01-26T03:14:17.453Z,2.10
2019-01-26T03:19:03.557Z,2.90
2019-01-26T03:23:49.351Z,2.40
2019-01-26T03:28:35.173Z,2.60
2019-01-26T03:33:20.937Z,2.60
2019-01-26T03:38:06.733Z,2.80
2019-01-26T03:42:52.627Z,2.80
2019-01-26T03:47:38.410Z,3.27
2019-01-26T03:52:24.180Z,2.97
2019-01-26T03:57:10.033Z,2.80
2019-01-26T04:01:55.995Z,2.83
2019-01-26T04:06:41.844Z,3.03
2019-01-26T04:11:27.600Z,2.70
2019-01-26T04:16:13.359Z,3.07
2019-01-26T04:20:59.143Z,3.47
2019-01-26T04:25:44.849Z,3.30
2019-01-26T04:30:30.673Z,3.30
2019-01-26T04:35:16.987Z,3.63
2019-01-26T04:40:02.878Z,2.87
2019-01-26T04:44:48.684Z,4.10
2019-01-26T04:49:34.412Z,3.53
2019-01-26T04:54:20.175Z,3.40
2019-01-26T04:59:05.969Z,2.87
2019-01-26T05:03:51.737Z,3.10
2019-01-26T05:08:37.532Z,3.30
2019-01-26T05:13:23.383Z,3.60
2019-01-26T05:18:09.156Z,3.37
2019-01-26T05:22:55.044Z,4.20
2019-01-26T05:27:40.766Z,5.20
2019-01-26T05:32:26.697Z,3.93
2019-01-26T05:37:12.505Z,3.30
2019-01-26T05:41:58.324Z,4.63
2019-01-26T05:46:44.243Z,4.80
2019-01-26T05:51:30.120Z,3.50
2019-01-26T05:56:15.986Z,5.70
2019-01-26T06:01:01.715Z,4.40
2019-01-26T06:05:47.422Z,5.03
2019-01-26T06:10:33.173Z,6.50
2019-01-26T06:15:19.062Z,4.83
2019-01-26T06:20:05.817Z,5.20
2019-01-26T06:24:51.702Z,5.40
2019-01-26T06:29:37.425Z,5.87
2019-01-26T06:34:23.188Z,5.63
2019-01-26T06:39:09.262Z,5.50
2019-01-26T06:43:54.977Z,6.20
2019-01-26T06:48:40.738Z,6.77
2019-01-26T06:53:26.613Z,6.10
2019-01-26T06:58:12.413Z,5.13
2019-01-26T07:02:58.118Z,5.07
2019-01-26T07:07:44.045Z,5.63
2019-01-26T07:12:29.847Z,4.73
2019-01-26T07:17:15.713Z,4.87
2019-01-26T07:22:01.672Z,5.90
2019-01-26T07:26:47.432Z,5.63
2019-01-26T07:31:33.323Z,5.93
2019-01-26T07:36:19.162Z,6.20
2019-01-26T07:41:05.151Z,5.17
2019-01-26T07:45:50.824Z,6.07
2019-01-26T07:50:36.823Z,5.67
2019-01-26T07:55:22.739Z,5.17
2019-01-26T08:00:12.954Z,5.07
2019-01-26T08:04:58.737Z,5.30
2019-01-26T08:09:44.493Z,5.30
2019-01-26T08:14:30.293Z,5.03
2019-01-26T08:19:16.081Z,5.47
2019-01-26T08:24:01.926Z,5.60
2019-01-26T08:28:47.697Z,5.43
2019-01-26T08:33:33.515Z,4.90
2019-01-26T08:38:19.302Z,4.87
2019-01-26T08:43:05.308Z,5.60
2019-01-26T08:47:51.529Z,5.03
2019-01-26T08:52:37.404Z,5.03
2019-01-26T08:57:23.243Z,4.60
2019-01-26T09:02:29.804Z,4.03
2019-01-26T09:07:15.920Z,3.70
2019-01-26T09:12:01.859Z,3.70
2019-01-26T09:16:47.559Z,4.10
2019-01-26T09:21:33.552Z,3.40
2019-01-26T09:26:19.399Z,3.80
2019-01-26T09:31:05.536Z,3.63
2019-01-26T09:35:51.365Z,3.00
2019-01-26T09:40:37.166Z,3.97
2019-01-26T09:45:23.113Z,3.60
2019-01-26T09:50:10.596Z,3.30
2019-01-26T09:54:56.494Z,3.97
2019-01-26T09:59:42.499Z,4.30
2019-01-26T10:04:28.351Z,4.53
2019-01-26T10:09:14.277Z,4.83
2019-01-26T10:14:00.343Z,3.53
2019-01-26T10:18:46.243Z,3.30
2019-01-26T10:23:32.164Z,3.43
2019-01-26T10:28:18.114Z,3.10
2019-01-26T10:33:04.182Z,3.17
2019-01-26T10:37:50.156Z,2.97
2019-01-26T10:42:37.019Z,2.77
2019-01-26T10:47:23.083Z,2.80
2019-01-26T10:52:09.291Z,2.97
2019-01-26T10:56:55.320Z,3.20
2019-01-26T11:01:41.249Z,3.27
2019-01-26T11:06:27.590Z,3.67
2019-01-26T11:11:13.481Z,3.93
2019-01-26T11:15:59.593Z,3.97
2019-01-26T11:20:45.765Z,3.50
2019-01-26T11:25:31.757Z,3.93
2019-01-26T11:30:18.521Z,4.33
2019-01-26T11:35:04.999Z,4.20
2019-01-26T11:39:58.307Z,4.10
2019-01-26T11:45:02.951Z,3.53
2019-01-26T11:49:56.723Z,5.10
2019-01-26T11:55:02.820Z,3.83
2019-01-26T12:00:07.586Z,5.03
2019-01-26T12:05:02.927Z,7.33
2019-01-26T12:09:48.874Z,7.30
2019-01-26T12:14:34.725Z,7.50
2019-01-26T12:19:22.491Z,6.57
2019-01-26T12:24:08.612Z,6.60
2019-01-26T12:28:54.438Z,5.23
2019-01-26T12:33:40.284Z,4.67
2019-01-26T12:38:26.204Z,4.80
2019-01-26T12:43:12.126Z,4.27
2019-01-26T12:47:58.070Z,4.40
2019-01-26T12:52:44.133Z,4.60
2019-01-26T12:57:30.071Z,5.13
2019-01-26T13:02:16.036Z,4.40
2019-01-26T13:07:02.636Z,4.53
2019-01-26T13:11:48.404Z,5.20
2019-01-26T13:16:34.222Z,4.60
2019-01-26T13:21:19.951Z,4.23
2019-01-26T13:26:05.857Z,4.70
2019-01-26T13:30:51.724Z,4.90
2019-01-26T13:35:38.621Z,4.03
2019-01-26T13:40:24.655Z,4.67
2019-01-26T13:45:12.852Z,4.47
2019-01-26T13:49:58.655Z,4.30
2019-01-26T13:54:44.640Z,4.03
2019-01-26T13:59:30.546Z,5.23
2019-01-26T14:04:16.534Z,4.23
2019-01-26T14:09:02.369Z,4.97
2019-01-26T14:13:48.244Z,5.00
2019-01-26T14:18:34.185Z,6.60
2019-01-26T14:23:20.126Z,8.57
2019-01-26T14:28:06.239Z,9.10
2019-01-26T14:32:52.602Z,9.23
2019-01-26T14:37:38.699Z,9.47
2019-01-26T14:42:24.607Z,8.83
2019-01-26T14:47:10.834Z,8.60
2019-01-26T14:51:56.795Z,9.47
2019-01-26T14:56:42.951Z,8.27
2019-01-26T15:01:28.861Z,7.30
2019-01-26T15:06:15.013Z,8.33
2019-01-26T15:11:00.861Z,8.67
2019-01-26T15:15:46.815Z,8.33
2019-01-26T15:20:38.476Z,8.07
2019-01-26T15:25:24.881Z,8.83
2019-01-26T15:30:26.063Z,9.70
2019-01-26T15:35:12.094Z,11.07
2019-01-26T15:39:57.996Z,10.30
2019-01-26T15:44:43.906Z,10.33
2019-01-26T15:49:29.984Z,11.17
2019-01-26T15:54:15.753Z,11.03
2019-01-26T15:59:01.634Z,11.40
2019-01-26T16:03:47.479Z,13.63
2019-01-26T16:08:33.851Z,12.47
2019-01-26T16:13:19.951Z,19.50
2019-01-26T16:18:08.268Z,18.10
2019-01-26T16:22:54.197Z,16.87
2019-01-26T16:27:40.311Z,15.93
2019-01-26T16:32:26.441Z,14.40
2019-01-26T16:37:12.551Z,12.97
2019-01-26T16:41:58.581Z,13.63
2019-01-26T16:46:44.586Z,12.07
2019-01-26T16:51:30.531Z,12.87
2019-01-26T16:56:16.536Z,12.40
2019-01-26T17:01:03.093Z,13.33
2019-01-26T17:05:49.254Z,14.97
2019-01-26T17:10:35.584Z,13.40
2019-01-26T17:15:21.495Z,13.23
2019-01-26T17:20:14.146Z,11.20
2019-01-26T17:25:00.302Z,10.80
2019-01-26T17:29:46.385Z,10.17
2019-01-26T17:34:32.337Z,9.90
2019-01-26T17:39:18.585Z,10.17
2019-01-26T17:44:04.581Z,10.07
2019-01-26T17:48:50.839Z,9.47
2019-01-26T17:53:37.413Z,9.27
2019-01-26T17:58:23.501Z,11.13
2019-01-26T18:03:09.429Z,12.57
2019-01-26T18:07:55.475Z,14.40
2019-01-26T18:12:41.400Z,15.70
2019-01-26T18:17:27.416Z,14.97
2019-01-26T18:22:13.601Z,13.57
2019-01-26T18:26:59.509Z,14.93
2019-01-26T18:31:45.593Z,15.23
2019-01-26T18:36:31.552Z,10.30
2019-01-26T18:41:17.877Z,11.13
2019-01-26T18:46:04.162Z,9.33
2019-01-26T18:50:56.167Z,9.63
2019-01-26T18:55:39.580Z,8.67
2019-01-26T19:00:30.629Z,9.33
2019-01-26T19:05:19.050Z,9.60
2019-01-26T19:10:05.670Z,9.70
2019-01-26T19:14:51.661Z,12.30
2019-01-26T19:19:37.848Z,8.77
2019-01-26T19:24:23.911Z,9.57
2019-01-26T19:29:09.928Z,10.73
2019-01-26T19:33:56.116Z,15.67
2019-01-26T19:38:41.952Z,14.50
2019-01-26T19:43:28.008Z,12.27
2019-01-26T19:48:14.272Z,13.10
2019-01-26T19:53:00.549Z,13.43
2019-01-26T19:57:46.695Z,12.93
2019-01-26T20:02:33.106Z,12.87
2019-01-26T20:07:19.259Z,13.57
2019-01-26T20:12:06.165Z,12.93
2019-01-26T20:16:52.351Z,11.83
2019-01-26T20:21:38.775Z,11.83
2019-01-26T20:26:25.463Z,13.43
2019-01-26T20:31:11.657Z,13.37
2019-01-26T20:35:58.033Z,12.00
2019-01-26T20:40:44.338Z,11.13
2019-01-26T20:45:30.656Z,11.30
2019-01-26T20:50:16.981Z,11.93
2019-01-26T20:55:03.901Z,11.73
2019-01-26T20:59:50.265Z,12.20
2019-01-26T21:04:36.640Z,11.10
2019-01-26T21:09:22.900Z,13.30
2019-01-26T21:14:11.917Z,12.67
2019-01-26T21:18:58.165Z,13.57
2019-01-26T21:23:44.432Z,30.10
2019-01-26T21:28:30.552Z,17.53
2019-01-26T21:33:16.752Z,14.87
2019-01-26T21:38:02.906Z,14.43
2019-01-26T21:42:49.177Z,12.77
2019-01-26T21:47:35.242Z,18.13
2019-01-26T21:52:21.276Z,17.93
2019-01-26T21:57:07.310Z,16.80
2019-01-26T22:01:53.240Z,16.90
2019-01-26T22:06:40.641Z,23.30
2019-01-26T22:11:26.531Z,18.77
2019-01-26T22:16:12.437Z,20.63
2019-01-26T22:20:58.286Z,18.87
2019-01-26T22:25:44.243Z,25.10
2019-01-26T22:30:35.216Z,15.43
2019-01-26T22:35:21.358Z,16.77
2019-01-26T22:40:10.164Z,16.00
2019-01-26T22:44:56.106Z,20.43
2019-01-26T22:49:41.892Z,17.40
2019-01-26T22:54:27.929Z,13.43
2019-01-26T22:59:14.105Z,11.07
2019-01-26T23:04:49.489Z,7.37
2019-01-26T23:09:53.925Z,14.63
2019-01-26T23:15:08.511Z,15.63
2019-01-26T23:20:29.257Z,14.57
2019-01-26T23:26:10.242Z,15.63
2019-01-26T23:31:21.694Z,14.70
2019-01-26T23:36:07.758Z,15.80
2019-01-26T23:40:53.899Z,14.33
2019-01-26T23:45:39.921Z,7.67
2019-01-26T23:50:25.726Z,7.93
2019-01-26T23:55:11.908Z,8.83
2019-01-26T23:59:57.679Z,12.20
